sensor_id;sensor_type;location;lat;lon;timestamp;P1;durP1;ratioP1;P2;durP2;ratioP2
51179;SDS011;37243;49.814;8.652;2022-11-03T00:01:15;1.55;;;1.45;;
51179;SDS011;37243;49.814;8.652;2022-11-03T00:03:43;2.00;;;1.60;;
51179;SDS011;37243;49.814;8.652;2022-11-03T00:06:12;1.88;;;1.60;;
51179;SDS011;37243;49.814;8.652;2022-11-03T00:08:41;1.70;;;1.50;;
51179;SDS011;37243;49.814;8.652;2022-11-03T00:11:10;2.15;;;1.58;;
51179;SDS011;37243;49.814;8.652;2022-11-03T00:13:41;1.55;;;1.45;;
51179;SDS011;37243;49.814;8.652;2022-11-03T00:16:17;1.52;;;1.42;;
51179;SDS011;37243;49.814;8.652;2022-11-03T00:18:45;3.42;;;1.38;;
51179;SDS011;37243;49.814;8.652;2022-11-03T00:21:13;2.00;;;1.80;;
51179;SDS011;37243;49.814;8.652;2022-11-03T00:23:42;1.50;;;1.40;;
51179;SDS011;37243;49.814;8.652;2022-11-03T00:26:12;2.65;;;1.40;;
51179;SDS011;37243;49.814;8.652;2022-11-03T00:28:42;2.03;;;1.77;;
51179;SDS011;37243;49.814;8.652;2022-11-03T00:31:12;1.90;;;1.70;;
51179;SDS011;37243;49.814;8.652;2022-11-03T00:33:44;1.98;;;1.83;;
51179;SDS011;37243;49.814;8.652;2022-11-03T00:36:14;2.08;;;1.60;;
51179;SDS011;37243;49.814;8.652;2022-11-03T00:38:44;1.58;;;1.38;;
51179;SDS011;37243;49.814;8.652;2022-11-03T00:41:13;2.45;;;1.40;;
51179;SDS011;37243;49.814;8.652;2022-11-03T00:43:41;2.03;;;1.92;;
51179;SDS011;37243;49.814;8.652;2022-11-03T00:46:10;1.95;;;1.65;;
51179;SDS011;37243;49.814;8.652;2022-11-03T00:48:38;1.60;;;1.50;;
51179;SDS011;37243;49.814;8.652;2022-11-03T00:51:11;1.50;;;1.40;;
51179;SDS011;37243;49.814;8.652;2022-11-03T00:53:41;2.42;;;1.73;;
51179;SDS011;37243;49.814;8.652;2022-11-03T00:56:12;1.30;;;1.20;;
51179;SDS011;37243;49.814;8.652;2022-11-03T00:58:42;1.50;;;1.40;;
51179;SDS011;37243;49.814;8.652;2022-11-03T01:01:11;1.20;;;1.10;;
51179;SDS011;37243;49.814;8.652;2022-11-03T01:03:42;1.40;;;1.30;;
51179;SDS011;37243;49.814;8.652;2022-11-03T01:06:34;1.40;;;1.30;;
51179;SDS011;37243;49.814;8.652;2022-11-03T01:09:17;1.48;;;1.35;;
51179;SDS011;37243;49.814;8.652;2022-11-03T01:11:49;1.40;;;1.35;;
51179;SDS011;37243;49.814;8.652;2022-11-03T01:14:22;1.67;;;1.58;;
51179;SDS011;37243;49.814;8.652;2022-11-03T01:16:52;1.40;;;1.30;;
51179;SDS011;37243;49.814;8.652;2022-11-03T01:19:20;1.77;;;1.50;;
51179;SDS011;37243;49.814;8.652;2022-11-03T01:21:52;2.47;;;1.55;;
51179;SDS011;37243;49.814;8.652;2022-11-03T01:24:20;1.60;;;1.50;;
51179;SDS011;37243;49.814;8.652;2022-11-03T01:26:49;2.10;;;1.40;;
51179;SDS011;37243;49.814;8.652;2022-11-03T01:29:17;1.27;;;1.17;;
51179;SDS011;37243;49.814;8.652;2022-11-03T01:31:45;1.33;;;1.30;;
51179;SDS011;37243;49.814;8.652;2022-11-03T01:34:14;1.35;;;1.25;;
51179;SDS011;37243;49.814;8.652;2022-11-03T01:36:44;1.02;;;1.02;;
51179;SDS011;37243;49.814;8.652;2022-11-03T01:39:17;1.65;;;1.08;;
51179;SDS011;37243;49.814;8.652;2022-11-03T01:41:47;1.83;;;1.73;;
51179;SDS011;37243;49.814;8.652;2022-11-03T01:44:25;2.13;;;1.30;;
51179;SDS011;37243;49.814;8.652;2022-11-03T01:46:57;1.48;;;1.38;;
51179;SDS011;37243;49.814;8.652;2022-11-03T01:49:33;1.27;;;1.17;;
51179;SDS011;37243;49.814;8.652;2022-11-03T01:52:05;1.25;;;1.20;;
51179;SDS011;37243;49.814;8.652;2022-11-03T01:54:40;1.30;;;1.30;;
51179;SDS011;37243;49.814;8.652;2022-11-03T01:57:12;1.67;;;1.40;;
51179;SDS011;37243;49.814;8.652;2022-11-03T01:59:44;1.42;;;1.38;;
51179;SDS011;37243;49.814;8.652;2022-11-03T02:02:14;1.50;;;1.40;;
51179;SDS011;37243;49.814;8.652;2022-11-03T02:04:42;1.50;;;1.40;;
51179;SDS011;37243;49.814;8.652;2022-11-03T02:07:13;1.40;;;1.30;;
51179;SDS011;37243;49.814;8.652;2022-11-03T02:09:49;1.27;;;1.17;;
51179;SDS011;37243;49.814;8.652;2022-11-03T02:12:18;1.48;;;1.38;;
51179;SDS011;37243;49.814;8.652;2022-11-03T02:14:48;1.63;;;1.38;;
51179;SDS011;37243;49.814;8.652;2022-11-03T02:17:21;1.40;;;1.30;;
51179;SDS011;37243;49.814;8.652;2022-11-03T02:19:53;1.38;;;1.27;;
51179;SDS011;37243;49.814;8.652;2022-11-03T02:28:15;1.30;;;1.20;;
51179;SDS011;37243;49.814;8.652;2022-11-03T02:30:47;1.40;;;1.30;;
51179;SDS011;37243;49.814;8.652;2022-11-03T02:33:24;1.60;;;1.50;;
51179;SDS011;37243;49.814;8.652;2022-11-03T02:36:05;1.33;;;1.23;;
51179;SDS011;37243;49.814;8.652;2022-11-03T02:38:42;1.20;;;1.20;;
51179;SDS011;37243;49.814;8.652;2022-11-03T02:41:17;1.60;;;1.50;;
51179;SDS011;37243;49.814;8.652;2022-11-03T02:43:46;1.77;;;1.30;;
51179;SDS011;37243;49.814;8.652;2022-11-03T02:46:15;1.38;;;1.27;;
51179;SDS011;37243;49.814;8.652;2022-11-03T02:48:45;1.33;;;1.23;;
51179;SDS011;37243;49.814;8.652;2022-11-03T02:51:14;1.17;;;1.08;;
51179;SDS011;37243;49.814;8.652;2022-11-03T02:53:44;1.20;;;1.10;;
51179;SDS011;37243;49.814;8.652;2022-11-03T02:56:18;1.30;;;1.20;;
51179;SDS011;37243;49.814;8.652;2022-11-03T02:58:51;2.28;;;1.20;;
51179;SDS011;37243;49.814;8.652;2022-11-03T03:01:27;1.75;;;1.40;;
51179;SDS011;37243;49.814;8.652;2022-11-03T03:04:11;1.40;;;1.25;;
51179;SDS011;37243;49.814;8.652;2022-11-03T03:06:44;1.50;;;1.40;;
51179;SDS011;37243;49.814;8.652;2022-11-03T03:09:19;1.30;;;1.20;;
51179;SDS011;37243;49.814;8.652;2022-11-03T03:11:54;1.30;;;1.20;;
51179;SDS011;37243;49.814;8.652;2022-11-03T03:14:27;1.27;;;1.17;;
51179;SDS011;37243;49.814;8.652;2022-11-03T03:16:58;1.63;;;1.52;;
51179;SDS011;37243;49.814;8.652;2022-11-03T03:19:29;1.15;;;1.13;;
51179;SDS011;37243;49.814;8.652;2022-11-03T03:22:09;1.30;;;1.20;;
51179;SDS011;37243;49.814;8.652;2022-11-03T03:24:43;1.23;;;1.23;;
51179;SDS011;37243;49.814;8.652;2022-11-03T03:27:22;1.00;;;1.00;;
51179;SDS011;37243;49.814;8.652;2022-11-03T03:29:54;1.25;;;1.15;;
51179;SDS011;37243;49.814;8.652;2022-11-03T03:32:24;1.40;;;1.10;;
51179;SDS011;37243;49.814;8.652;2022-11-03T03:34:55;1.30;;;1.20;;
51179;SDS011;37243;49.814;8.652;2022-11-03T03:37:25;1.38;;;1.38;;
51179;SDS011;37243;49.814;8.652;2022-11-03T03:39:57;1.40;;;1.30;;
51179;SDS011;37243;49.814;8.652;2022-11-03T03:42:32;1.67;;;1.58;;
51179;SDS011;37243;49.814;8.652;2022-11-03T03:45:04;1.20;;;1.10;;
51179;SDS011;37243;49.814;8.652;2022-11-03T03:47:36;1.45;;;1.35;;
51179;SDS011;37243;49.814;8.652;2022-11-03T03:50:05;1.25;;;1.20;;
51179;SDS011;37243;49.814;8.652;2022-11-03T03:52:35;1.58;;;1.20;;
51179;SDS011;37243;49.814;8.652;2022-11-03T03:55:05;1.90;;;1.75;;
51179;SDS011;37243;49.814;8.652;2022-11-03T03:57:41;1.17;;;1.17;;
51179;SDS011;37243;49.814;8.652;2022-11-03T04:00:11;1.20;;;1.10;;
51179;SDS011;37243;49.814;8.652;2022-11-03T04:02:40;1.92;;;1.30;;
51179;SDS011;37243;49.814;8.652;2022-11-03T04:05:09;1.35;;;1.25;;
51179;SDS011;37243;49.814;8.652;2022-11-03T04:07:37;1.65;;;1.45;;
51179;SDS011;37243;49.814;8.652;2022-11-03T04:10:15;1.40;;;1.30;;
51179;SDS011;37243;49.814;8.652;2022-11-03T04:12:48;1.30;;;1.17;;
51179;SDS011;37243;49.814;8.652;2022-11-03T04:15:30;1.17;;;1.10;;
51179;SDS011;37243;49.814;8.652;2022-11-03T04:18:11;1.00;;;1.00;;
51179;SDS011;37243;49.814;8.652;2022-11-03T04:20:52;0.90;;;0.90;;
51179;SDS011;37243;49.814;8.652;2022-11-03T04:23:33;1.50;;;1.40;;
51179;SDS011;37243;49.814;8.652;2022-11-03T04:26:02;1.35;;;1.25;;
51179;SDS011;37243;49.814;8.652;2022-11-03T04:28:36;1.90;;;1.00;;
51179;SDS011;37243;49.814;8.652;2022-11-03T04:31:05;1.10;;;1.10;;
51179;SDS011;37243;49.814;8.652;2022-11-03T04:33:37;1.30;;;1.20;;
51179;SDS011;37243;49.814;8.652;2022-11-03T04:36:09;1.48;;;1.38;;
51179;SDS011;37243;49.814;8.652;2022-11-03T04:38:40;1.10;;;1.05;;
51179;SDS011;37243;49.814;8.652;2022-11-03T04:41:12;0.98;;;0.90;;
51179;SDS011;37243;49.814;8.652;2022-11-03T04:43:45;1.17;;;1.17;;
51179;SDS011;37243;49.814;8.652;2022-11-03T04:46:15;1.38;;;1.00;;
51179;SDS011;37243;49.814;8.652;2022-11-03T04:48:44;1.52;;;1.38;;
51179;SDS011;37243;49.814;8.652;2022-11-03T04:51:14;1.30;;;1.20;;
51179;SDS011;37243;49.814;8.652;2022-11-03T04:53:45;1.30;;;1.30;;
51179;SDS011;37243;49.814;8.652;2022-11-03T04:56:17;1.27;;;1.13;;
51179;SDS011;37243;49.814;8.652;2022-11-03T04:58:51;1.17;;;1.08;;
51179;SDS011;37243;49.814;8.652;2022-11-03T05:01:21;1.15;;;1.10;;
51179;SDS011;37243;49.814;8.652;2022-11-03T05:03:51;1.50;;;1.40;;
51179;SDS011;37243;49.814;8.652;2022-11-03T05:06:20;0.95;;;0.95;;
51179;SDS011;37243;49.814;8.652;2022-11-03T05:08:51;1.55;;;1.00;;
51179;SDS011;37243;49.814;8.652;2022-11-03T05:11:25;1.35;;;1.25;;
51179;SDS011;37243;49.814;8.652;2022-11-03T05:14:00;1.48;;;1.15;;
51179;SDS011;37243;49.814;8.652;2022-11-03T05:16:31;1.50;;;1.13;;
51179;SDS011;37243;49.814;8.652;2022-11-03T05:18:59;1.10;;;1.00;;
51179;SDS011;37243;49.814;8.652;2022-11-03T05:21:28;1.02;;;1.00;;
51179;SDS011;37243;49.814;8.652;2022-11-03T05:23:58;1.95;;;1.17;;
51179;SDS011;37243;49.814;8.652;2022-11-03T05:26:30;0.90;;;0.90;;
51179;SDS011;37243;49.814;8.652;2022-11-03T05:29:08;1.33;;;1.23;;
51179;SDS011;37243;49.814;8.652;2022-11-03T05:31:41;1.13;;;1.00;;
51179;SDS011;37243;49.814;8.652;2022-11-03T05:36:59;1.65;;;1.48;;
51179;SDS011;37243;49.814;8.652;2022-11-03T05:39:47;1.17;;;1.17;;
51179;SDS011;37243;49.814;8.652;2022-11-03T05:42:19;1.25;;;1.15;;
51179;SDS011;37243;49.814;8.652;2022-11-03T05:44:54;0.95;;;0.95;;
51179;SDS011;37243;49.814;8.652;2022-11-03T05:47:24;1.13;;;0.90;;
51179;SDS011;37243;49.814;8.652;2022-11-03T05:49:59;1.10;;;1.00;;
51179;SDS011;37243;49.814;8.652;2022-11-03T05:52:33;1.30;;;1.20;;
51179;SDS011;37243;49.814;8.652;2022-11-03T05:55:02;2.00;;;1.20;;
51179;SDS011;37243;49.814;8.652;2022-11-03T05:57:31;1.35;;;0.98;;
51179;SDS011;37243;49.814;8.652;2022-11-03T06:00:18;1.50;;;1.10;;
51179;SDS011;37243;49.814;8.652;2022-11-03T06:02:52;1.15;;;0.95;;
51179;SDS011;37243;49.814;8.652;2022-11-03T06:05:21;1.38;;;1.20;;
51179;SDS011;37243;49.814;8.652;2022-11-03T06:07:51;1.30;;;1.20;;
51179;SDS011;37243;49.814;8.652;2022-11-03T06:10:23;1.38;;;1.08;;
51179;SDS011;37243;49.814;8.652;2022-11-03T06:12:55;1.70;;;1.10;;
51179;SDS011;37243;49.814;8.652;2022-11-03T06:15:30;1.40;;;1.30;;
51179;SDS011;37243;49.814;8.652;2022-11-03T06:18:01;1.10;;;1.10;;
51179;SDS011;37243;49.814;8.652;2022-11-03T06:20:40;2.15;;;1.10;;
51179;SDS011;37243;49.814;8.652;2022-11-03T06:23:09;1.38;;;1.27;;
51179;SDS011;37243;49.814;8.652;2022-11-03T06:25:41;1.40;;;1.30;;
51179;SDS011;37243;49.814;8.652;2022-11-03T06:28:10;1.30;;;1.20;;
51179;SDS011;37243;49.814;8.652;2022-11-03T06:30:47;1.67;;;1.00;;
51179;SDS011;37243;49.814;8.652;2022-11-03T06:33:17;2.33;;;1.40;;
51179;SDS011;37243;49.814;8.652;2022-11-03T06:35:49;3.42;;;1.63;;
51179;SDS011;37243;49.814;8.652;2022-11-03T06:38:22;5.78;;;1.60;;
51179;SDS011;37243;49.814;8.652;2022-11-03T06:40:53;2.92;;;1.38;;
51179;SDS011;37243;49.814;8.652;2022-11-03T06:43:24;4.03;;;1.60;;
51179;SDS011;37243;49.814;8.652;2022-11-03T06:45:57;3.10;;;1.58;;
51179;SDS011;37243;49.814;8.652;2022-11-03T06:48:29;3.33;;;1.40;;
51179;SDS011;37243;49.814;8.652;2022-11-03T06:51:01;2.90;;;1.30;;
51179;SDS011;37243;49.814;8.652;2022-11-03T06:53:31;4.18;;;1.52;;
51179;SDS011;37243;49.814;8.652;2022-11-03T06:56:00;5.20;;;1.40;;
51179;SDS011;37243;49.814;8.652;2022-11-03T06:58:29;3.70;;;1.38;;
51179;SDS011;37243;49.814;8.652;2022-11-03T07:01:15;1.90;;;1.60;;
51179;SDS011;37243;49.814;8.652;2022-11-03T07:03:47;2.50;;;1.50;;
51179;SDS011;37243;49.814;8.652;2022-11-03T07:06:17;3.08;;;1.13;;
51179;SDS011;37243;49.814;8.652;2022-11-03T07:08:49;2.35;;;1.55;;
51179;SDS011;37243;49.814;8.652;2022-11-03T07:11:20;3.33;;;1.50;;
51179;SDS011;37243;49.814;8.652;2022-11-03T07:13:50;1.50;;;1.23;;
51179;SDS011;37243;49.814;8.652;2022-11-03T07:16:25;6.95;;;1.52;;
51179;SDS011;37243;49.814;8.652;2022-11-03T07:18:57;1.70;;;1.08;;
51179;SDS011;37243;49.814;8.652;2022-11-03T07:21:31;1.40;;;1.27;;
51179;SDS011;37243;49.814;8.652;2022-11-03T07:24:04;2.97;;;1.30;;
51179;SDS011;37243;49.814;8.652;2022-11-03T07:26:45;7.72;;;1.45;;
51179;SDS011;37243;49.814;8.652;2022-11-03T07:29:15;2.55;;;1.20;;
51179;SDS011;37243;49.814;8.652;2022-11-03T07:31:50;1.60;;;1.27;;
51179;SDS011;37243;49.814;8.652;2022-11-03T07:34:21;2.25;;;1.52;;
51179;SDS011;37243;49.814;8.652;2022-11-03T07:36:53;1.67;;;1.27;;
51179;SDS011;37243;49.814;8.652;2022-11-03T07:39:25;1.30;;;1.20;;
51179;SDS011;37243;49.814;8.652;2022-11-03T07:42:01;1.42;;;1.30;;
51179;SDS011;37243;49.814;8.652;2022-11-03T07:44:30;3.70;;;1.48;;
51179;SDS011;37243;49.814;8.652;2022-11-03T07:47:01;2.20;;;1.40;;
51179;SDS011;37243;49.814;8.652;2022-11-03T07:49:30;4.07;;;1.58;;
51179;SDS011;37243;49.814;8.652;2022-11-03T07:51:58;1.67;;;1.58;;
51179;SDS011;37243;49.814;8.652;2022-11-03T07:54:27;1.35;;;1.25;;
51179;SDS011;37243;49.814;8.652;2022-11-03T07:56:57;1.30;;;1.20;;
51179;SDS011;37243;49.814;8.652;2022-11-03T07:59:27;2.30;;;1.30;;
51179;SDS011;37243;49.814;8.652;2022-11-03T08:02:05;2.85;;;1.30;;
51179;SDS011;37243;49.814;8.652;2022-11-03T08:04:51;3.15;;;1.75;;
51179;SDS011;37243;49.814;8.652;2022-11-03T08:07:19;2.60;;;1.58;;
51179;SDS011;37243;49.814;8.652;2022-11-03T08:09:48;1.75;;;1.48;;
51179;SDS011;37243;49.814;8.652;2022-11-03T08:12:16;3.08;;;1.60;;
51179;SDS011;37243;49.814;8.652;2022-11-03T08:14:44;1.40;;;1.20;;
51179;SDS011;37243;49.814;8.652;2022-11-03T08:17:15;3.55;;;1.40;;
51179;SDS011;37243;49.814;8.652;2022-11-03T08:19:44;2.58;;;1.40;;
51179;SDS011;37243;49.814;8.652;2022-11-03T08:22:12;2.10;;;1.60;;
51179;SDS011;37243;49.814;8.652;2022-11-03T08:24:40;1.55;;;1.40;;
51179;SDS011;37243;49.814;8.652;2022-11-03T08:27:08;2.08;;;1.48;;
51179;SDS011;37243;49.814;8.652;2022-11-03T08:29:37;1.45;;;1.35;;
51179;SDS011;37243;49.814;8.652;2022-11-03T08:32:05;1.73;;;1.10;;
51179;SDS011;37243;49.814;8.652;2022-11-03T08:34:36;3.10;;;1.33;;
51179;SDS011;37243;49.814;8.652;2022-11-03T08:37:04;3.08;;;1.50;;
51179;SDS011;37243;49.814;8.652;2022-11-03T08:39:32;6.63;;;1.70;;
51179;SDS011;37243;49.814;8.652;2022-11-03T08:42:01;6.47;;;2.00;;
51179;SDS011;37243;49.814;8.652;2022-11-03T08:44:29;4.90;;;2.15;;
51179;SDS011;37243;49.814;8.652;2022-11-03T08:46:57;5.50;;;1.75;;
51179;SDS011;37243;49.814;8.652;2022-11-03T08:49:26;5.20;;;1.88;;
51179;SDS011;37243;49.814;8.652;2022-11-03T08:51:56;5.43;;;2.30;;
51179;SDS011;37243;49.814;8.652;2022-11-03T08:54:25;5.20;;;2.20;;
51179;SDS011;37243;49.814;8.652;2022-11-03T08:56:53;5.50;;;2.30;;
51179;SDS011;37243;49.814;8.652;2022-11-03T08:59:21;4.15;;;2.10;;
51179;SDS011;37243;49.814;8.652;2022-11-03T09:01:49;4.35;;;2.53;;
51179;SDS011;37243;49.814;8.652;2022-11-03T09:04:18;2.97;;;1.67;;
51179;SDS011;37243;49.814;8.652;2022-11-03T09:06:46;2.72;;;2.10;;
51179;SDS011;37243;49.814;8.652;2022-11-03T09:09:17;3.53;;;1.92;;
51179;SDS011;37243;49.814;8.652;2022-11-03T09:11:45;2.65;;;1.70;;
51179;SDS011;37243;49.814;8.652;2022-11-03T09:14:13;10.98;;;1.95;;
51179;SDS011;37243;49.814;8.652;2022-11-03T09:16:42;4.93;;;2.22;;
51179;SDS011;37243;49.814;8.652;2022-11-03T09:19:10;2.40;;;2.08;;
51179;SDS011;37243;49.814;8.652;2022-11-03T09:21:38;4.28;;;1.88;;
51179;SDS011;37243;49.814;8.652;2022-11-03T09:24:06;2.78;;;1.90;;
51179;SDS011;37243;49.814;8.652;2022-11-03T09:26:38;5.28;;;1.92;;
51179;SDS011;37243;49.814;8.652;2022-11-03T09:29:06;4.38;;;1.90;;
51179;SDS011;37243;49.814;8.652;2022-11-03T09:31:34;2.50;;;2.30;;
51179;SDS011;37243;49.814;8.652;2022-11-03T09:34:02;3.67;;;2.10;;
51179;SDS011;37243;49.814;8.652;2022-11-03T09:36:30;7.07;;;2.30;;
51179;SDS011;37243;49.814;8.652;2022-11-03T09:38:59;3.17;;;2.10;;
51179;SDS011;37243;49.814;8.652;2022-11-03T09:41:27;4.40;;;2.05;;
51179;SDS011;37243;49.814;8.652;2022-11-03T09:43:59;4.13;;;2.17;;
51179;SDS011;37243;49.814;8.652;2022-11-03T09:46:28;3.88;;;2.35;;
51179;SDS011;37243;49.814;8.652;2022-11-03T09:48:59;2.58;;;1.83;;
51179;SDS011;37243;49.814;8.652;2022-11-03T09:51:28;2.95;;;1.90;;
51179;SDS011;37243;49.814;8.652;2022-11-03T09:53:58;2.15;;;1.73;;
51179;SDS011;37243;49.814;8.652;2022-11-03T09:56:30;3.25;;;1.92;;
51179;SDS011;37243;49.814;8.652;2022-11-03T09:59:01;2.22;;;1.90;;
51179;SDS011;37243;49.814;8.652;2022-11-03T10:01:34;4.18;;;2.13;;
51179;SDS011;37243;49.814;8.652;2022-11-03T10:04:02;2.65;;;1.80;;
51179;SDS011;37243;49.814;8.652;2022-11-03T10:06:31;2.80;;;1.75;;
51179;SDS011;37243;49.814;8.652;2022-11-03T10:08:59;2.25;;;1.83;;
51179;SDS011;37243;49.814;8.652;2022-11-03T10:11:27;2.10;;;1.90;;
51179;SDS011;37243;49.814;8.652;2022-11-03T10:13:56;2.28;;;1.88;;
51179;SDS011;37243;49.814;8.652;2022-11-03T10:16:27;3.35;;;1.90;;
51179;SDS011;37243;49.814;8.652;2022-11-03T10:18:55;2.75;;;1.75;;
51179;SDS011;37243;49.814;8.652;2022-11-03T10:21:25;3.25;;;1.80;;
51179;SDS011;37243;49.814;8.652;2022-11-03T10:23:58;2.40;;;2.20;;
51179;SDS011;37243;49.814;8.652;2022-11-03T10:26:26;2.00;;;1.80;;
51179;SDS011;37243;49.814;8.652;2022-11-03T10:29:00;3.08;;;2.20;;
51179;SDS011;37243;49.814;8.652;2022-11-03T10:31:36;2.65;;;2.17;;
51179;SDS011;37243;49.814;8.652;2022-11-03T10:34:05;3.20;;;2.10;;
51179;SDS011;37243;49.814;8.652;2022-11-03T10:37:04;2.40;;;2.20;;
51179;SDS011;37243;49.814;8.652;2022-11-03T10:39:38;4.32;;;2.20;;
51179;SDS011;37243;49.814;8.652;2022-11-03T10:42:08;2.97;;;1.80;;
51179;SDS011;37243;49.814;8.652;2022-11-03T10:44:45;3.08;;;1.80;;
51179;SDS011;37243;49.814;8.652;2022-11-03T10:47:30;2.03;;;1.92;;
51179;SDS011;37243;49.814;8.652;2022-11-03T10:49:59;2.33;;;2.05;;
51179;SDS011;37243;49.814;8.652;2022-11-03T10:52:39;3.35;;;2.30;;
51179;SDS011;37243;49.814;8.652;2022-11-03T10:55:08;2.10;;;2.00;;
51179;SDS011;37243;49.814;8.652;2022-11-03T10:57:36;3.78;;;1.80;;
51179;SDS011;37243;49.814;8.652;2022-11-03T11:00:05;3.92;;;1.95;;
51179;SDS011;37243;49.814;8.652;2022-11-03T11:02:42;3.70;;;2.10;;
51179;SDS011;37243;49.814;8.652;2022-11-03T11:05:13;2.33;;;2.10;;
51179;SDS011;37243;49.814;8.652;2022-11-03T11:07:45;5.95;;;2.20;;
51179;SDS011;37243;49.814;8.652;2022-11-03T11:10:16;4.10;;;2.33;;
51179;SDS011;37243;49.814;8.652;2022-11-03T11:13:02;2.13;;;1.73;;
51179;SDS011;37243;49.814;8.652;2022-11-03T11:15:36;4.25;;;2.25;;
51179;SDS011;37243;49.814;8.652;2022-11-03T11:18:08;3.78;;;1.73;;
51179;SDS011;37243;49.814;8.652;2022-11-03T11:20:39;3.42;;;2.10;;
51179;SDS011;37243;49.814;8.652;2022-11-03T11:26:29;2.95;;;2.05;;
51179;SDS011;37243;49.814;8.652;2022-11-03T11:41:19;3.75;;;1.98;;
51179;SDS011;37243;49.814;8.652;2022-11-03T11:43:47;2.13;;;1.92;;
51179;SDS011;37243;49.814;8.652;2022-11-03T11:46:32;3.70;;;1.88;;
51179;SDS011;37243;49.814;8.652;2022-11-03T11:49:15;3.40;;;2.17;;
51179;SDS011;37243;49.814;8.652;2022-11-03T11:51:44;2.30;;;2.10;;
51179;SDS011;37243;49.814;8.652;2022-11-03T11:54:14;2.00;;;1.80;;
51179;SDS011;37243;49.814;8.652;2022-11-03T11:56:48;2.30;;;1.92;;
51179;SDS011;37243;49.814;8.652;2022-11-03T11:59:18;5.88;;;2.00;;
51179;SDS011;37243;49.814;8.652;2022-11-03T12:01:49;3.15;;;1.90;;
51179;SDS011;37243;49.814;8.652;2022-11-03T12:04:20;4.03;;;1.90;;
51179;SDS011;37243;49.814;8.652;2022-11-03T12:06:51;2.05;;;1.50;;
51179;SDS011;37243;49.814;8.652;2022-11-03T12:09:20;2.03;;;1.73;;
51179;SDS011;37243;49.814;8.652;2022-11-03T12:11:54;2.15;;;1.70;;
51179;SDS011;37243;49.814;8.652;2022-11-03T12:14:24;2.17;;;1.77;;
51179;SDS011;37243;49.814;8.652;2022-11-03T12:16:53;2.30;;;1.75;;
51179;SDS011;37243;49.814;8.652;2022-11-03T12:19:38;2.63;;;2.15;;
51179;SDS011;37243;49.814;8.652;2022-11-03T12:22:08;1.80;;;1.70;;
51179;SDS011;37243;49.814;8.652;2022-11-03T12:24:44;2.05;;;1.88;;
51179;SDS011;37243;49.814;8.652;2022-11-03T12:30:19;1.92;;;1.83;;
51179;SDS011;37243;49.814;8.652;2022-11-03T12:32:47;2.03;;;1.70;;
51179;SDS011;37243;49.814;8.652;2022-11-03T12:35:17;1.95;;;1.70;;
51179;SDS011;37243;49.814;8.652;2022-11-03T12:37:45;2.00;;;1.80;;
51179;SDS011;37243;49.814;8.652;2022-11-03T12:40:14;1.95;;;1.83;;
51179;SDS011;37243;49.814;8.652;2022-11-03T12:42:45;2.42;;;1.77;;
51179;SDS011;37243;49.814;8.652;2022-11-03T12:45:13;1.80;;;1.70;;
51179;SDS011;37243;49.814;8.652;2022-11-03T12:47:41;1.73;;;1.58;;
51179;SDS011;37243;49.814;8.652;2022-11-03T12:50:10;1.92;;;1.80;;
51179;SDS011;37243;49.814;8.652;2022-11-03T12:52:38;2.47;;;1.70;;
51179;SDS011;37243;49.814;8.652;2022-11-03T12:55:07;2.13;;;1.92;;
51179;SDS011;37243;49.814;8.652;2022-11-03T12:57:36;2.30;;;1.90;;
51179;SDS011;37243;49.814;8.652;2022-11-03T13:00:08;2.70;;;1.75;;
51179;SDS011;37243;49.814;8.652;2022-11-03T13:02:36;2.45;;;1.65;;
51179;SDS011;37243;49.814;8.652;2022-11-03T13:05:05;1.98;;;1.85;;
51179;SDS011;37243;49.814;8.652;2022-11-03T13:07:39;1.80;;;1.70;;
51179;SDS011;37243;49.814;8.652;2022-11-03T13:10:08;1.75;;;1.65;;
51179;SDS011;37243;49.814;8.652;2022-11-03T13:12:36;2.60;;;1.70;;
51179;SDS011;37243;49.814;8.652;2022-11-03T13:15:08;2.42;;;1.70;;
51179;SDS011;37243;49.814;8.652;2022-11-03T13:17:38;1.75;;;1.65;;
51179;SDS011;37243;49.814;8.652;2022-11-03T13:20:06;2.00;;;1.80;;
51179;SDS011;37243;49.814;8.652;2022-11-03T13:22:38;2.65;;;1.92;;
51179;SDS011;37243;49.814;8.652;2022-11-03T13:25:07;1.60;;;1.50;;
51179;SDS011;37243;49.814;8.652;2022-11-03T13:27:36;1.75;;;1.60;;
51179;SDS011;37243;49.814;8.652;2022-11-03T13:30:04;1.65;;;1.55;;
51179;SDS011;37243;49.814;8.652;2022-11-03T13:32:36;2.15;;;1.90;;
51179;SDS011;37243;49.814;8.652;2022-11-03T13:35:05;1.95;;;1.75;;
51179;SDS011;37243;49.814;8.652;2022-11-03T13:37:34;1.80;;;1.70;;
51179;SDS011;37243;49.814;8.652;2022-11-03T13:40:02;2.00;;;1.70;;
51179;SDS011;37243;49.814;8.652;2022-11-03T13:42:31;1.60;;;1.50;;
51179;SDS011;37243;49.814;8.652;2022-11-03T13:44:59;1.83;;;1.73;;
51179;SDS011;37243;49.814;8.652;2022-11-03T13:47:30;2.80;;;2.03;;
51179;SDS011;37243;49.814;8.652;2022-11-03T13:49:59;3.47;;;1.58;;
51179;SDS011;37243;49.814;8.652;2022-11-03T13:52:27;2.60;;;1.42;;
51179;SDS011;37243;49.814;8.652;2022-11-03T13:54:55;1.95;;;1.85;;
51179;SDS011;37243;49.814;8.652;2022-11-03T13:57:24;2.00;;;1.80;;
51179;SDS011;37243;49.814;8.652;2022-11-03T13:59:52;1.83;;;1.73;;
51179;SDS011;37243;49.814;8.652;2022-11-03T14:02:20;2.75;;;1.70;;
51179;SDS011;37243;49.814;8.652;2022-11-03T14:04:51;1.90;;;1.70;;
51179;SDS011;37243;49.814;8.652;2022-11-03T14:07:20;2.70;;;1.90;;
51179;SDS011;37243;49.814;8.652;2022-11-03T14:09:48;2.25;;;1.77;;
51179;SDS011;37243;49.814;8.652;2022-11-03T14:12:16;3.78;;;2.00;;
51179;SDS011;37243;49.814;8.652;2022-11-03T14:15:01;1.95;;;1.75;;
51179;SDS011;37243;49.814;8.652;2022-11-03T14:17:31;2.97;;;1.88;;
51179;SDS011;37243;49.814;8.652;2022-11-03T14:20:03;1.77;;;1.67;;
51179;SDS011;37243;49.814;8.652;2022-11-03T14:22:33;1.60;;;1.50;;
51179;SDS011;37243;49.814;8.652;2022-11-03T14:25:02;3.42;;;1.83;;
51179;SDS011;37243;49.814;8.652;2022-11-03T14:27:31;2.78;;;1.60;;
51179;SDS011;37243;49.814;8.652;2022-11-03T14:30:00;2.30;;;1.60;;
51179;SDS011;37243;49.814;8.652;2022-11-03T14:32:28;1.65;;;1.45;;
51179;SDS011;37243;49.814;8.652;2022-11-03T14:34:56;2.22;;;1.63;;
51179;SDS011;37243;49.814;8.652;2022-11-03T14:37:27;4.35;;;1.73;;
51179;SDS011;37243;49.814;8.652;2022-11-03T14:39:55;2.08;;;1.73;;
51179;SDS011;37243;49.814;8.652;2022-11-03T14:42:24;2.38;;;1.60;;
51179;SDS011;37243;49.814;8.652;2022-11-03T14:44:49;3.95;;;1.90;;
51179;SDS011;37243;49.814;8.652;2022-11-03T14:47:18;2.33;;;1.83;;
51179;SDS011;37243;49.814;8.652;2022-11-03T14:49:49;7.70;;;2.17;;
51179;SDS011;37243;49.814;8.652;2022-11-03T14:52:18;6.22;;;2.33;;
51179;SDS011;37243;49.814;8.652;2022-11-03T14:54:48;9.38;;;2.10;;
51179;SDS011;37243;49.814;8.652;2022-11-03T14:57:17;5.35;;;2.10;;
51179;SDS011;37243;49.814;8.652;2022-11-03T14:59:45;3.08;;;1.88;;
51179;SDS011;37243;49.814;8.652;2022-11-03T15:02:14;4.60;;;1.80;;
51179;SDS011;37243;49.814;8.652;2022-11-03T15:04:42;4.13;;;1.90;;
51179;SDS011;37243;49.814;8.652;2022-11-03T15:07:10;4.60;;;1.90;;
51179;SDS011;37243;49.814;8.652;2022-11-03T15:09:38;3.03;;;2.00;;
51179;SDS011;37243;49.814;8.652;2022-11-03T15:12:09;2.78;;;1.90;;
51179;SDS011;37243;49.814;8.652;2022-11-03T15:14:38;2.65;;;1.92;;
51179;SDS011;37243;49.814;8.652;2022-11-03T15:17:06;4.38;;;1.80;;
51179;SDS011;37243;49.814;8.652;2022-11-03T15:19:34;2.75;;;1.70;;
51179;SDS011;37243;49.814;8.652;2022-11-03T15:22:02;2.72;;;1.80;;
51179;SDS011;37243;49.814;8.652;2022-11-03T15:24:31;2.97;;;1.80;;
51179;SDS011;37243;49.814;8.652;2022-11-03T15:26:59;3.17;;;2.25;;
51179;SDS011;37243;49.814;8.652;2022-11-03T15:29:30;5.05;;;2.35;;
51179;SDS011;37243;49.814;8.652;2022-11-03T15:31:58;3.80;;;2.20;;
51179;SDS011;37243;49.814;8.652;2022-11-03T15:34:26;6.20;;;2.30;;
51179;SDS011;37243;49.814;8.652;2022-11-03T15:36:55;7.20;;;2.97;;
51179;SDS011;37243;49.814;8.652;2022-11-03T15:39:23;6.43;;;2.75;;